Time;durP1;ratioP1;P1;durP2;ratioP2;P2;SDS_P1;SDS_P2;PMS_P1;PMS_P2;Temp;Humidity;BMP_temperature;BMP_pressure;BME280_temperature;BME280_humidity;BME280_pressure;Samples;Min_cycle;Max_cycle;Signal;HPM_P1;HPM_P2
2023/11/13 00:00:08;;;;;;;36.90;24.97;;;;;;;9.37;100.00;94694.75;5031132;28;20493;-76
2023/11/13 00:02:35;;;;;;;35.13;22.40;;;;;;;9.43;100.00;94695.06;5031277;28;20439;-77
2023/11/13 00:05:04;;;;;;;33.23;21.83;;;;;;;9.48;100.00;94686.81;5031120;28;20456;-76
2023/11/13 00:07:30;;;;;;;38.40;23.20;;;;;;;9.54;100.00;94681.06;5031048;28;20530;-76
2023/11/13 00:09:57;;;;;;;49.07;25.63;;;;;;;9.56;100.00;94679.16;5030791;28;20939;-76
2023/11/13 00:12:24;;;;;;;51.07;28.10;;;;;;;9.61;100.00;94695.31;5031120;28;20469;-76
2023/11/13 00:14:53;;;;;;;58.33;33.07;;;;;;;9.60;100.00;94707.59;5012329;28;20550;-76
2023/11/13 00:17:20;;;;;;;46.40;29.17;;;;;;;9.58;100.00;94696.41;5030529;28;20499;-76
2023/11/13 00:19:47;;;;;;;26.90;19.27;;;;;;;9.60;100.00;94693.66;5030705;28;21070;-76
2023/11/13 00:22:14;;;;;;;26.73;18.53;;;;;;;9.54;100.00;94681.91;5030773;28;20925;-76
2023/11/13 00:24:41;;;;;;;26.53;16.77;;;;;;;9.44;100.00;94680.19;5012232;28;20449;-76
2023/11/13 00:27:08;;;;;;;31.67;20.27;;;;;;;9.30;100.00;94683.97;5030649;28;20446;-76
2023/11/13 00:29:35;;;;;;;38.23;21.93;;;;;;;9.25;100.00;94696.56;5030792;28;20521;-76
2023/11/13 00:32:03;;;;;;;34.20;22.80;;;;;;;9.26;100.00;94700.88;5030631;28;20464;-76
2023/11/13 00:34:30;;;;;;;30.73;21.50;;;;;;;9.26;100.00;94693.84;5030610;28;20526;-76
2023/11/13 00:36:56;;;;;;;28.10;20.43;;;;;;;9.29;100.00;94682.31;5030404;28;20438;-76
2023/11/13 00:39:24;;;;;;;25.53;16.93;;;;;;;9.36;100.00;94690.47;5030415;28;20501;-76
2023/11/13 00:41:51;;;;;;;33.87;24.07;;;;;;;9.28;100.00;94696.34;5030592;28;20453;-76
2023/11/13 00:44:17;;;;;;;32.13;19.63;;;;;;;9.27;100.00;94703.38;5030228;28;20442;-76
2023/11/13 00:46:45;;;;;;;25.07;16.93;;;;;;;9.24;100.00;94692.28;5030465;28;20499;-76
2023/11/13 00:49:13;;;;;;;19.90;16.57;;;;;;;9.25;100.00;94691.34;5030477;28;20449;-76
2023/11/13 00:51:40;;;;;;;21.20;15.93;;;;;;;9.32;100.00;94693.34;5030239;28;20785;-76
2023/11/13 00:54:10;;;;;;;30.13;17.37;;;;;;;9.35;100.00;94699.28;5029940;28;20442;-76
2023/11/13 00:56:37;;;;;;;26.13;18.07;;;;;;;9.38;100.00;94709.50;5030546;28;20454;-76
2023/11/13 00:59:04;;;;;;;25.60;16.00;;;;;;;9.37;100.00;94705.22;5029915;28;20441;-76
2023/11/13 01:01:31;;;;;;;26.07;16.30;;;;;;;9.32;100.00;94700.38;4995548;28;20448;-76
2023/11/13 01:03:58;;;;;;;20.67;14.03;;;;;;;9.32;100.00;94703.81;5029881;28;20454;-76
2023/11/13 01:06:26;;;;;;;22.33;13.83;;;;;;;9.30;100.00;94695.25;5029813;28;20495;-76
2023/11/13 01:08:53;;;;;;;19.17;13.60;;;;;;;9.34;100.00;94689.78;5030127;28;20552;-76
2023/11/13 01:11:20;;;;;;;23.00;14.20;;;;;;;9.34;100.00;94695.84;5029948;28;20883;-76
2023/11/13 01:13:47;;;;;;;15.77;11.20;;;;;;;9.38;100.00;94704.25;5029870;28;20488;-76
2023/11/13 01:16:14;;;;;;;11.13;9.37;;;;;;;9.41;100.00;94696.97;5029984;28;20444;-76
2023/11/13 01:18:41;;;;;;;17.83;13.20;;;;;;;9.48;100.00;94697.28;5029887;28;20453;-76
2023/11/13 01:21:08;;;;;;;15.43;9.40;;;;;;;9.48;100.00;94694.66;5027622;28;20837;-76
2023/11/13 01:23:37;;;;;;;17.90;11.23;;;;;;;9.49;100.00;94697.16;5029747;28;20453;-76
2023/11/13 01:26:06;;;;;;;20.00;12.80;;;;;;;9.50;100.00;94698.00;4994709;28;20440;-76
2023/11/13 01:28:33;;;;;;;21.33;14.60;;;;;;;9.50;100.00;94692.75;5029931;28;20449;-76
2023/11/13 01:31:00;;;;;;;23.23;11.87;;;;;;;9.53;100.00;94690.69;5029932;28;20457;-76
2023/11/13 01:33:28;;;;;;;18.77;11.33;;;;;;;9.58;100.00;94698.19;4994570;28;20437;-76
2023/11/13 01:35:55;;;;;;;18.77;12.80;;;;;;;9.60;100.00;94691.03;5029759;28;20811;-76
2023/11/13 01:38:24;;;;;;;17.97;11.23;;;;;;;9.61;100.00;94677.81;5029758;28;20449;-76
2023/11/13 01:40:52;;;;;;;15.40;11.57;;;;;;;9.64;100.00;94676.72;5029667;28;20497;-76
2023/11/13 01:43:20;;;;;;;21.00;12.40;;;;;;;9.61;100.00;94677.81;5029631;28;20450;-76
2023/11/13 01:45:50;;;;;;;14.87;11.80;;;;;;;9.64;100.00;94684.56;5029643;28;20985;-76
2023/11/13 01:48:17;;;;;;;16.13;11.63;;;;;;;9.65;100.00;94683.63;5029704;28;20443;-76
2023/11/13 01:50:44;;;;;;;18.60;12.63;;;;;;;9.65;100.00;94678.38;5029609;28;20441;-76
2023/11/13 01:53:13;;;;;;;12.70;11.40;;;;;;;9.65;100.00;94683.63;5029210;28;20442;-76
2023/11/13 01:55:41;;;;;;;19.17;13.73;;;;;;;9.68;100.00;94687.78;5029318;28;20473;-76
2023/11/13 01:58:10;;;;;;;17.43;11.33;;;;;;;9.66;100.00;94673.97;5029469;28;20462;-76
2023/11/13 02:00:38;;;;;;;16.33;11.60;;;;;;;9.60;100.00;94676.16;5029096;28;20588;-76
2023/11/13 02:03:05;;;;;;;19.10;12.53;;;;;;;9.61;100.00;94683.06;5029308;28;20437;-76
2023/11/13 02:05:33;;;;;;;18.17;12.53;;;;;;;9.62;100.00;94686.50;5028894;28;20482;-76
2023/11/13 02:07:59;;;;;;;17.20;12.20;;;;;;;9.57;100.00;94697.38;5032817;28;20774;-76
2023/11/13 02:10:27;;;;;;;22.77;13.80;;;;;;;9.60;100.00;94704.13;5032948;28;20442;-76
2023/11/13 02:12:57;;;;;;;14.43;11.97;;;;;;;9.59;100.00;94705.94;5032573;28;20980;-76
2023/11/13 02:15:26;;;;;;;23.73;12.93;;;;;;;9.57;100.00;94709.63;5032677;28;20444;-76
2023/11/13 02:18:01;;;;;;;16.43;12.00;;;;;;;9.55;100.00;94716.78;5032418;28;20449;-76
2023/11/13 02:20:28;;;;;;;19.27;12.47;;;;;;;9.51;100.00;94708.34;4997277;28;20507;-76
2023/11/13 02:22:55;;;;;;;17.07;12.70;;;;;;;9.45;100.00;94708.03;5032316;28;20441;-76
2023/11/13 02:25:25;;;;;;;17.90;11.87;;;;;;;9.42;100.00;94697.81;5032435;28;20838;-76
2023/11/13 02:27:53;;;;;;;21.10;13.33;;;;;;;9.36;100.00;94690.47;5032740;28;20452;-76
2023/11/13 02:30:20;;;;;;;21.27;14.83;;;;;;;9.31;100.00;94683.81;5032527;28;20456;-76
2023/11/13 02:32:48;;;;;;;21.00;14.40;;;;;;;9.35;100.00;94680.94;5032382;28;20455;-76
2023/11/13 02:35:15;;;;;;;20.60;15.30;;;;;;;9.38;100.00;94683.31;4996936;28;20990;-76
2023/11/13 02:37:41;;;;;;;16.83;13.50;;;;;;;9.41;100.00;94686.50;5031656;28;20461;-76
2023/11/13 02:40:11;;;;;;;22.20;15.03;;;;;;;9.42;100.00;94696.03;5031669;28;20493;-77
2023/11/13 02:42:40;;;;;;;21.67;15.77;;;;;;;9.41;100.00;94694.34;5032429;28;20450;-76
2023/11/13 02:45:08;;;;;;;28.07;17.70;;;;;;;9.43;100.00;94696.84;5082428;28;20442;-76
2023/11/13 02:47:34;;;;;;;28.87;19.37;;;;;;;9.42;100.00;94696.03;5030658;28;20442;-76
2023/11/13 02:50:02;;;;;;;30.83;16.07;;;;;;;9.41;100.00;94696.16;5032614;28;20821;-77
2023/11/13 02:52:29;;;;;;;21.47;15.80;;;;;;;9.41;100.00;94699.59;5032371;28;20446;-76
2023/11/13 02:54:55;;;;;;;20.53;14.90;;;;;;;9.46;100.00;94699.22;5031991;28;20484;-76
2023/11/13 02:57:23;;;;;;;18.57;13.23;;;;;;;9.48;100.00;94702.53;5032012;28;20453;-76
2023/11/13 02:59:51;;;;;;;21.60;13.90;;;;;;;9.48;100.00;94707.75;5031557;28;20937;-77
2023/11/13 03:02:18;;;;;;;17.10;13.13;;;;;;;9.50;100.00;94711.09;5031623;28;20454;-77
2023/11/13 03:04:44;;;;;;;16.63;12.67;;;;;;;9.54;100.00;94702.00;5032024;28;20948;-76
2023/11/13 03:07:11;;;;;;;19.07;13.63;;;;;;;9.56;100.00;94700.13;5031728;28;20449;-77
2023/11/13 03:09:40;;;;;;;20.90;12.33;;;;;;;9.60;100.00;94698.91;5032132;28;20449;-77
2023/11/13 03:12:08;;;;;;;27.83;14.93;;;;;;;9.61;100.00;94695.31;5031842;28;20775;-76
2023/11/13 03:14:34;;;;;;;15.40;12.43;;;;;;;9.64;100.00;94697.69;5031703;28;20883;-76
2023/11/13 03:17:03;;;;;;;20.23;11.60;;;;;;;9.67;100.00;94689.56;5031677;28;20438;-76
2023/11/13 03:19:29;;;;;;;15.60;12.70;;;;;;;9.67;100.00;94692.19;5031668;28;20453;-77
2023/11/13 03:21:56;;;;;;;20.27;12.63;;;;;;;9.66;100.00;94687.91;5031534;28;20493;-76
2023/11/13 03:24:23;;;;;;;19.00;12.73;;;;;;;9.64;100.00;94687.19;5031769;28;20442;-77
2023/11/13 03:26:50;;;;;;;19.10;12.90;;;;;;;9.70;100.00;94697.16;5031578;28;20950;-76
2023/11/13 03:29:17;;;;;;;21.80;15.30;;;;;;;9.68;100.00;94695.63;5031535;28;20443;-76
2023/11/13 03:31:45;;;;;;;20.23;15.37;;;;;;;9.68;100.00;94703.50;5031911;28;20438;-76
2023/11/13 03:34:13;;;;;;;22.40;13.97;;;;;;;9.69;100.00;94702.53;5031433;28;20443;-76
2023/11/13 03:36:40;;;;;;;20.80;14.60;;;;;;;9.71;100.00;94698.81;5031518;28;20450;-76
2023/11/13 03:39:07;;;;;;;17.03;13.23;;;;;;;9.67;100.00;94697.41;5031315;28;20491;-76
2023/11/13 03:41:34;;;;;;;22.67;14.70;;;;;;;9.68;100.00;94693.00;5031310;28;20490;-76
2023/11/13 03:44:01;;;;;;;16.93;13.13;;;;;;;9.74;100.00;94697.72;5031318;28;20449;-76
2023/11/13 03:46:30;;;;;;;19.60;12.50;;;;;;;9.77;100.00;94707.94;5031363;28;20463;-76
2023/11/13 03:48:57;;;;;;;19.37;13.57;;;;;;;9.79;100.00;94721.75;5031195;28;20462;-76
2023/11/13 03:51:26;;;;;;;21.73;15.57;;;;;;;9.80;100.00;94723.41;5031598;28;20446;-77
2023/11/13 03:53:53;;;;;;;17.33;13.53;;;;;;;9.78;100.00;94730.56;5031093;28;20776;-76
2023/11/13 03:56:20;;;;;;;21.90;15.03;;;;;;;9.77;100.00;94737.59;5031223;28;20445;-76
2023/11/13 03:58:47;;;;;;;31.33;18.93;;;;;;;9.73;100.00;94730.13;5028926;28;20474;-76
2023/11/13 04:01:19;;;;;;;23.23;14.90;;;;;;;9.70;100.00;94733.00;5030776;28;20486;-77
2023/11/13 04:03:46;;;;;;;21.30;15.90;;;;;;;9.68;100.00;94724.44;4964061;28;20446;-76
2023/11/13 04:06:13;;;;;;;18.97;15.07;;;;;;;9.64;100.00;94731.72;5030890;28;20465;-77
2023/11/13 04:08:41;;;;;;;25.80;16.77;;;;;;;9.61;100.00;94727.59;5031108;28;20438;-76
2023/11/13 04:11:08;;;;;;;18.57;15.77;;;;;;;9.64;100.00;94729.13;5030805;28;20442;-76
2023/11/13 04:13:35;;;;;;;20.33;15.70;;;;;;;9.65;100.00;94725.53;5030873;28;20453;-76
2023/11/13 04:16:03;;;;;;;22.87;16.73;;;;;;;9.66;100.00;94731.59;5030606;28;20458;-76
2023/11/13 04:18:31;;;;;;;28.37;20.03;;;;;;;9.70;100.00;94739.06;5031013;28;20449;-76
2023/11/13 04:20:58;;;;;;;23.07;20.63;;;;;;;9.66;100.00;94736.84;5030916;28;20489;-76
2023/11/13 04:23:26;;;;;;;23.33;18.40;;;;;;;9.60;100.00;94741.66;5030542;28;20453;-76
2023/11/13 04:25:54;;;;;;;31.17;19.97;;;;;;;9.44;100.00;94738.63;5028369;28;20443;-76
2023/11/13 04:28:22;;;;;;;30.83;25.97;;;;;;;9.42;100.00;94747.56;5027890;28;20453;-76
2023/11/13 04:30:49;;;;;;;39.63;31.60;;;;;;;9.35;100.00;94739.38;4996257;28;20443;-76
2023/11/13 04:33:14;;;;;;;34.67;31.03;;;;;;;9.34;100.00;94745.59;4995507;28;20445;-76
2023/11/13 04:35:42;;;;;;;42.97;34.60;;;;;;;9.34;100.00;94750.00;5030660;28;20450;-76
2023/11/13 04:38:09;;;;;;;34.70;31.03;;;;;;;9.36;100.00;94750.69;5030698;28;20609;-76
2023/11/13 04:40:35;;;;;;;41.53;37.47;;;;;;;9.38;100.00;94759.25;5030555;28;20486;-76
2023/11/13 04:43:04;;;;;;;38.60;34.93;;;;;;;9.42;100.00;94761.50;5030131;28;20449;-76
2023/11/13 04:45:30;;;;;;;43.47;39.10;;;;;;;9.42;100.00;94765.91;5030624;28;20996;-73
2023/11/13 04:47:57;;;;;;;40.40;34.63;;;;;;;9.39;100.00;94763.53;5030097;28;20443;-76
2023/11/13 04:50:24;;;;;;;44.97;40.93;;;;;;;9.29;100.00;94761.69;5030430;28;20446;-76
2023/11/13 04:52:51;;;;;;;49.90;45.27;;;;;;;9.35;100.00;94772.59;5030298;28;20442;-76
2023/11/13 04:55:17;;;;;;;36.27;32.73;;;;;;;9.40;100.00;94776.50;5029985;28;20475;-76
2023/11/13 04:57:44;;;;;;;43.90;39.90;;;;;;;9.31;100.00;94778.09;5030275;28;20447;-76
2023/11/13 05:00:14;;;;;;;45.53;41.43;;;;;;;9.39;100.00;94785.31;5029920;28;20450;-76
2023/11/13 05:02:42;;;;;;;57.70;52.63;;;;;;;9.41;100.00;94795.66;5029788;28;20454;-76
2023/11/13 05:05:10;;;;;;;103.97;96.40;;;;;;;9.46;100.00;94798.72;4994419;28;21135;-76
2023/11/13 05:07:38;;;;;;;97.50;89.20;;;;;;;9.46;100.00;94809.22;5029755;28;20454;-76
2023/11/13 05:10:07;;;;;;;90.07;82.57;;;;;;;9.51;100.00;94805.25;5029523;28;20450;-77
2023/11/13 05:12:33;;;;;;;115.83;107.03;;;;;;;9.57;100.00;94815.25;5029987;28;20441;-76
2023/11/13 05:15:00;;;;;;;121.40;112.17;;;;;;;9.61;100.00;94816.66;5029655;28;20811;-77
2023/11/13 05:17:30;;;;;;;113.90;104.83;;;;;;;9.62;100.00;94809.63;5027675;28;20469;-76
2023/11/13 05:19:59;;;;;;;108.20;99.33;;;;;;;9.66;100.00;94825.91;5031417;28;20462;-77
2023/11/13 05:22:25;;;;;;;108.13;99.43;;;;;;;9.71;100.00;94829.81;5029911;28;20485;-76
2023/11/13 05:24:52;;;;;;;108.73;100.13;;;;;;;9.74;100.00;94829.56;5041345;28;20805;-76
2023/11/13 05:27:19;;;;;;;107.40;99.47;;;;;;;9.76;100.00;94832.06;5030887;28;20449;-76
2023/11/13 05:29:46;;;;;;;104.27;96.63;;;;;;;9.78;100.00;94846.69;5049642;28;20449;-76
2023/11/13 05:32:13;;;;;;;91.97;84.77;;;;;;;9.82;100.00;94848.09;5031854;28;20445;-76
2023/11/13 05:34:41;;;;;;;104.40;96.47;;;;;;;9.85;100.00;94842.63;5029489;28;20902;-76
2023/11/13 05:37:09;;;;;;;88.17;81.63;;;;;;;9.88;100.00;94858.09;5029347;28;20450;-76
2023/11/13 05:39:35;;;;;;;91.97;85.23;;;;;;;9.85;100.00;94852.28;5011225;28;20939;-76
2023/11/13 05:42:02;;;;;;;88.43;81.53;;;;;;;9.83;100.00;94865.50;5033001;28;20489;-76
2023/11/13 05:44:30;;;;;;;107.90;99.77;;;;;;;9.79;100.00;94874.56;5032886;28;20449;-76
2023/11/13 05:46:56;;;;;;;93.40;86.30;;;;;;;9.80;100.00;94880.63;5032887;28;20446;-76
2023/11/13 05:49:23;;;;;;;100.80;93.30;;;;;;;9.79;100.00;94879.81;5032792;28;20543;-75
2023/11/13 05:51:51;;;;;;;90.80;84.57;;;;;;;9.82;100.00;94878.72;5014055;28;20446;-76
2023/11/13 05:54:19;;;;;;;108.27;100.10;;;;;;;9.84;100.00;94871.59;5032785;28;20480;-75
2023/11/13 05:56:46;;;;;;;107.60;100.00;;;;;;;9.81;100.00;94869.19;5032596;28;20446;-75
2023/11/13 05:59:14;;;;;;;114.47;105.40;;;;;;;9.73;100.00;94869.00;4997890;28;20932;-76
2023/11/13 06:01:40;;;;;;;119.97;111.07;;;;;;;9.73;100.00;94872.44;5099561;28;20478;-76
2023/11/13 06:04:07;;;;;;;124.23;115.33;;;;;;;9.71;100.00;94871.75;5031786;28;20446;-76
2023/11/13 06:06:34;;;;;;;142.70;131.90;;;;;;;9.69;100.00;94871.03;5013856;28;20445;-76
2023/11/13 06:09:03;;;;;;;142.50;131.60;;;;;;;9.72;100.00;94870.78;5032413;28;20438;-76
2023/11/13 06:11:29;;;;;;;138.77;128.07;;;;;;;9.78;100.00;94867.66;5089709;27;20517;-75
2023/11/13 06:13:56;;;;;;;141.50;130.50;;;;;;;9.79;100.00;94869.31;5045167;28;20446;-75
2023/11/13 06:16:23;;;;;;;156.03;143.57;;;;;;;9.78;100.00;94867.66;5032716;27;20916;-74
2023/11/13 06:18:52;;;;;;;137.80;126.80;;;;;;;9.81;100.00;94872.66;5038021;27;20451;-76
2023/11/13 06:21:19;;;;;;;136.80;125.70;;;;;;;9.80;100.00;94875.38;5061479;27;20528;-75
2023/11/13 06:23:46;;;;;;;125.03;115.60;;;;;;;9.75;100.00;94867.06;5024971;27;20445;-74
2023/11/13 06:26:14;;;;;;;129.17;119.47;;;;;;;9.67;100.00;94867.72;5039337;27;20430;-76
2023/11/13 06:28:42;;;;;;;147.97;135.40;;;;;;;9.58;100.00;94881.56;5060973;27;20857;-76
2023/11/13 06:31:09;;;;;;;167.53;153.13;;;;;;;9.57;100.00;94888.59;5032530;28;20453;-76
2023/11/13 06:33:37;;;;;;;151.73;139.63;;;;;;;9.62;100.00;94893.47;5032382;28;20454;-78
2023/11/13 06:36:08;;;;;;;159.97;145.47;;;;;;;9.75;100.00;94891.50;5032205;28;20775;-76
2023/11/13 06:38:35;;;;;;;161.83;146.83;;;;;;;9.95;100.00;94884.63;5014028;28;20439;-76
2023/11/13 06:41:03;;;;;;;182.13;165.40;;;;;;;10.16;100.00;94887.28;5031534;28;20805;-76
2023/11/13 06:43:32;;;;;;;180.40;164.83;;;;;;;10.22;100.00;94886.78;5013619;28;20441;-77
2023/11/13 06:45:59;;;;;;;179.20;163.57;;;;;;;10.31;100.00;94887.81;5031743;28;20446;-75
2023/11/13 06:48:26;;;;;;;165.73;153.00;;;;;;;10.33;100.00;94891.94;5032167;28;20470;-76
2023/11/13 06:50:53;;;;;;;165.30;152.37;;;;;;;10.23;100.00;94888.44;5031445;28;20449;-76
2023/11/13 06:53:20;;;;;;;154.73;143.53;;;;;;;10.25;100.00;94886.53;5031908;28;20445;-76
2023/11/13 06:55:48;;;;;;;177.97;164.97;;;;;;;10.34;100.00;94882.28;5031919;28;20481;-76
2023/11/13 06:58:15;;;;;;;161.73;149.90;;;;;;;10.43;100.00;94876.28;5032001;28;20537;-76
2023/11/13 07:00:46;;;;;;;177.03;163.50;;;;;;;10.54;100.00;94865.72;5031765;28;20957;-76
2023/11/13 07:03:13;;;;;;;168.03;156.07;;;;;;;10.70;99.16;94873.13;5046439;28;20485;-76
2023/11/13 07:05:40;;;;;;;178.03;166.03;;;;;;;10.84;98.98;94872.75;5031092;28;20453;-77
2023/11/13 07:08:09;;;;;;;201.73;187.03;;;;;;;10.88;98.91;94868.06;5031021;28;20967;-77
2023/11/13 07:10:38;;;;;;;188.23;174.47;;;;;;;10.79;99.03;94861.81;5031132;28;20448;-76
2023/11/13 07:13:10;;;;;;;190.67;177.03;;;;;;;10.77;99.62;94861.13;5030912;28;20449;-76
2023/11/13 07:15:37;;;;;;;208.27;192.27;;;;;;;10.39;100.00;94870.44;5012322;28;20435;-76
2023/11/13 07:18:08;;;;;;;157.97;146.23;;;;;;;10.36;100.00;94852.34;5030925;28;20450;-76
2023/11/13 07:20:37;;;;;;;183.53;170.33;;;;;;;10.27;100.00;94850.50;5031015;28;20438;-76
2023/11/13 07:23:05;;;;;;;173.63;160.40;;;;;;;10.13;100.00;94838.53;4996358;28;20482;-76
2023/11/13 07:25:32;;;;;;;176.07;162.50;;;;;;;10.13;100.00;94840.34;5030759;28;20443;-76
2023/11/13 07:27:59;;;;;;;179.40;165.80;;;;;;;10.06;100.00;94839.16;5030644;28;20446;-76
2023/11/13 07:30:27;;;;;;;178.93;165.50;;;;;;;10.08;100.00;94826.75;4996051;28;20449;-76
2023/11/13 07:32:58;;;;;;;161.17;148.10;;;;;;;10.05;100.00;94840.94;5030782;28;20821;-76
2023/11/13 07:35:26;;;;;;;196.40;181.83;;;;;;;10.23;100.00;94847.31;5030832;28;20539;-74
2023/11/13 07:37:53;;;;;;;198.13;183.43;;;;;;;10.30;100.00;94836.31;5030278;28;20438;-74
2023/11/13 07:40:20;;;;;;;188.33;173.00;;;;;;;10.26;100.00;94850.66;4995621;28;20447;-74
2023/11/13 07:42:49;;;;;;;196.37;182.33;;;;;;;10.10;100.00;94844.03;5030422;28;20517;-76
2023/11/13 07:45:16;;;;;;;201.47;186.00;;;;;;;10.14;100.00;94840.22;5030425;28;20478;-76
2023/11/13 07:47:43;;;;;;;169.63;156.50;;;;;;;10.11;100.00;94842.22;5030453;28;20445;-76
2023/11/13 07:50:12;;;;;;;205.70;189.13;;;;;;;10.14;100.00;94842.81;5030290;28;20430;-76
2023/11/13 07:52:43;;;;;;;214.40;198.07;;;;;;;9.73;100.00;94853.28;5030092;28;20450;-76
2023/11/13 07:55:11;;;;;;;199.00;183.50;;;;;;;9.83;100.00;94854.16;5030047;28;20470;-76
2023/11/13 07:57:38;;;;;;;200.27;182.57;;;;;;;9.83;100.00;94855.03;5030054;28;20480;-76
2023/11/13 08:00:09;;;;;;;205.97;188.60;;;;;;;9.77;100.00;94863.38;5030056;28;20434;-76
2023/11/13 08:02:40;;;;;;;213.77;197.23;;;;;;;9.74;100.00;94861.00;5028144;28;20478;-76
2023/11/13 08:05:26;;;;;;;199.17;182.17;;;;;;;9.89;100.00;94869.41;5029907;28;20450;-76
2023/11/13 08:07:54;;;;;;;199.57;182.50;;;;;;;9.98;100.00;94873.06;5075174;28;20445;-76
2023/11/13 08:10:28;;;;;;;201.30;185.23;;;;;;;10.14;100.00;94876.91;5030301;28;20450;-76
2023/11/13 08:12:57;;;;;;;205.37;189.27;;;;;;;10.27;100.00;94866.25;5030187;28;20442;-76
2023/11/13 08:15:25;;;;;;;199.70;184.00;;;;;;;10.37;100.00;94853.19;5029804;28;20926;-76
2023/11/13 08:17:54;;;;;;;211.70;195.90;;;;;;;10.48;100.00;94859.19;5029925;28;20478;-76
2023/11/13 08:20:26;;;;;;;186.60;171.73;;;;;;;10.52;100.00;94860.59;5029979;28;20449;-76
2023/11/13 08:22:58;;;;;;;193.60;179.13;;;;;;;10.47;100.00;94854.91;5029703;28;20510;-76
2023/11/13 08:25:25;;;;;;;220.13;203.13;;;;;;;10.69;100.00;94853.06;5029455;28;20959;-76
2023/11/13 08:27:52;;;;;;;201.63;186.83;;;;;;;10.93;100.00;94847.50;5029610;28;20451;-76
2023/11/13 08:30:23;;;;;;;197.10;182.90;;;;;;;10.94;98.23;94843.91;5029972;28;20471;-76
2023/11/13 08:32:58;;;;;;;203.67;189.03;;;;;;;11.12;98.00;94844.94;5029807;28;20439;-76
2023/11/13 08:35:26;;;;;;;183.17;171.20;;;;;;;10.75;98.36;94842.06;5029872;28;20438;-76
2023/11/13 08:37:57;;;;;;;200.37;186.80;;;;;;;10.94;100.00;94844.72;5029429;28;20438;-75
2023/11/13 08:40:24;;;;;;;197.47;183.33;;;;;;;11.11;98.77;94845.91;5029234;28;20865;-75
2023/11/13 08:42:51;;;;;;;221.53;206.40;;;;;;;11.26;98.86;94843.72;5029530;28;20848;-76
2023/11/13 08:45:19;;;;;;;248.20;230.47;;;;;;;11.04;96.54;94850.03;5029294;28;20453;-75
2023/11/13 08:47:47;;;;;;;218.83;202.33;;;;;;;11.03;96.88;94841.31;5029849;28;20443;-75
2023/11/13 08:50:15;;;;;;;273.47;250.83;;;;;;;11.04;97.38;94839.53;5029417;28;21010;-75
2023/11/13 08:52:43;;;;;;;299.37;276.47;;;;;;;10.88;98.41;94842.66;5029455;28;20446;-75
2023/11/13 08:55:12;;;;;;;290.43;265.67;;;;;;;10.80;98.78;94839.88;5029459;28;20855;-76
2023/11/13 08:57:42;;;;;;;288.07;264.13;;;;;;;10.77;99.33;94840.13;5029313;28;20964;-75
2023/11/13 09:00:18;;;;;;;282.43;259.23;;;;;;;10.87;100.00;94840.97;5011410;28;20457;-75
2023/11/13 09:02:45;;;;;;;274.87;251.33;;;;;;;10.91;99.16;94842.38;5029305;28;20843;-75
2023/11/13 09:05:13;;;;;;;278.83;253.77;;;;;;;11.01;97.99;94845.06;5029217;28;20812;-75
2023/11/13 09:07:40;;;;;;;279.13;256.03;;;;;;;11.03;96.96;94841.31;5029038;28;20442;-75
2023/11/13 09:10:09;;;;;;;255.47;233.40;;;;;;;10.97;97.32;94857.59;5029440;28;20442;-76
2023/11/13 09:12:37;;;;;;;288.57;265.63;;;;;;;11.10;98.18;94862.63;5029077;28;20478;-75
2023/11/13 09:15:11;;;;;;;283.13;261.00;;;;;;;11.31;98.06;94859.91;5029206;28;20449;-76
2023/11/13 09:17:43;;;;;;;264.93;244.13;;;;;;;11.39;96.08;94863.53;5029133;28;20474;-76
2023/11/13 09:20:11;;;;;;;258.20;238.37;;;;;;;11.22;94.08;94871.22;5029519;28;20519;-75
2023/11/13 09:22:39;;;;;;;283.10;262.10;;;;;;;11.12;95.56;94864.16;5029022;28;20551;-75
2023/11/13 09:25:07;;;;;;;267.60;246.20;;;;;;;11.24;95.61;94864.84;5029031;28;20465;-75
2023/11/13 09:27:34;;;;;;;270.83;250.93;;;;;;;11.34;94.37;94859.66;5029105;28;20978;-75
2023/11/13 09:30:04;;;;;;;281.70;260.40;;;;;;;11.24;95.05;94859.59;5029175;28;20450;-75
2023/11/13 09:32:31;;;;;;;237.90;220.47;;;;;;;11.55;95.50;94868.22;5028886;28;20458;-75
2023/11/13 09:34:59;;;;;;;266.50;247.83;;;;;;;11.86;94.25;94870.81;5029102;28;20451;-75
2023/11/13 09:37:26;;;;;;;283.80;263.67;;;;;;;11.97;92.97;94873.28;5029010;28;20440;-75
2023/11/13 09:39:53;;;;;;;284.83;265.00;;;;;;;12.19;92.40;94877.44;5028990;28;20444;-75
2023/11/13 09:42:20;;;;;;;263.13;245.60;;;;;;;12.08;91.22;94876.59;5028711;28;20482;-75
2023/11/13 09:44:49;;;;;;;274.07;254.87;;;;;;;11.88;91.29;94874.94;4994195;28;20881;-75
2023/11/13 09:47:22;;;;;;;279.37;258.20;;;;;;;12.00;91.08;94878.25;4993944;28;20446;-76
2023/11/13 09:49:56;;;;;;;283.27;263.07;;;;;;;12.00;91.68;94878.25;5028963;28;20802;-76
2023/11/13 09:52:27;;;;;;;290.00;269.00;;;;;;;11.89;91.56;94883.66;5028666;28;20946;-75
2023/11/13 09:54:56;;;;;;;325.00;299.63;;;;;;;11.88;91.54;94896.00;5028825;28;21004;-75
2023/11/13 09:57:24;;;;;;;319.63;295.33;;;;;;;11.83;90.73;94894.72;5028603;28;20864;-75
2023/11/13 09:59:52;;;;;;;311.30;288.93;;;;;;;11.94;90.38;94891.97;5028581;28;20497;-75
2023/11/13 10:02:21;;;;;;;324.97;300.50;;;;;;;12.14;91.17;94888.34;5028751;28;20533;-76
2023/11/13 10:04:48;;;;;;;282.73;261.63;;;;;;;12.33;90.80;94898.03;5028601;28;20462;-75
2023/11/13 10:07:18;;;;;;;308.87;285.70;;;;;;;12.32;89.90;94902.47;5028556;28;20435;-75
2023/11/13 10:10:02;;;;;;;323.83;300.03;;;;;;;12.20;89.69;94900.97;5028429;28;20465;-75
2023/11/13 10:12:30;;;;;;;304.90;280.67;;;;;;;12.28;89.96;94892.38;5028727;28;20940;-75
2023/11/13 10:15:12;;;;;;;289.67;268.50;;;;;;;12.31;90.38;94887.66;5028455;28;20449;-75
2023/11/13 10:17:46;;;;;;;306.57;284.30;;;;;;;12.41;88.26;94885.81;5028663;28;20508;-75
2023/11/13 10:20:17;;;;;;;314.77;291.97;;;;;;;12.53;87.47;94883.88;5028245;28;20437;-75
2023/11/13 10:22:44;;;;;;;322.07;299.27;;;;;;;12.55;87.68;94878.47;5028165;28;20500;-76
2023/11/13 10:25:11;;;;;;;315.07;293.07;;;;;;;12.55;87.47;94878.47;5028266;28;20445;-75
2023/11/13 10:27:40;;;;;;;332.27;309.53;;;;;;;12.59;87.06;94869.31;5031582;28;20806;-75
2023/11/13 10:30:07;;;;;;;329.60;307.13;;;;;;;12.68;87.82;94863.19;5031770;28;20444;-75
2023/11/13 10:32:36;;;;;;;311.87;290.73;;;;;;;12.84;87.00;94865.22;5031634;28;20807;-76
2023/11/13 10:35:09;;;;;;;334.30;311.00;;;;;;;12.92;86.30;94855.59;5031439;28;20472;-76
2023/11/13 10:37:55;;;;;;;316.33;295.23;;;;;;;12.87;85.24;94849.13;5031768;28;20445;-75
2023/11/13 10:40:30;;;;;;;321.20;300.40;;;;;;;12.84;85.28;94852.06;5001928;28;20540;-75
2023/11/13 10:42:57;;;;;;;335.50;312.50;;;;;;;12.67;85.49;94851.81;5031317;28;20483;-75
2023/11/13 10:45:24;;;;;;;352.93;329.30;;;;;;;12.73;85.74;94850.44;5012751;28;20872;-75
2023/11/13 10:47:52;;;;;;;369.17;343.20;;;;;;;12.86;86.08;94850.94;5031596;28;20452;-76
2023/11/13 10:50:23;;;;;;;345.23;322.53;;;;;;;12.88;84.99;94848.16;5031511;28;20443;-76
2023/11/13 10:52:51;;;;;;;354.20;329.50;;;;;;;12.90;84.42;94851.47;5031355;28;20445;-76
2023/11/13 10:55:20;;;;;;;348.53;324.60;;;;;;;12.87;84.08;94852.59;5031623;28;20471;-76
2023/11/13 10:57:47;;;;;;;343.40;320.40;;;;;;;13.08;85.32;94856.81;5012634;28;20462;-76
2023/11/13 11:00:15;;;;;;;357.13;333.33;;;;;;;13.21;83.94;94860.78;5031005;28;20779;-76
2023/11/13 11:02:45;;;;;;;348.63;325.00;;;;;;;13.33;82.42;94874.59;5081302;28;20579;-76
2023/11/13 11:05:25;;;;;;;317.97;295.87;;;;;;;13.37;82.21;94864.59;5031336;28;20449;-77
2023/11/13 11:07:53;;;;;;;25.40;15.10;;;;;;;13.47;80.50;94862.72;4998401;28;20443;-76
2023/11/13 11:10:25;;;;;;;28.63;20.80;;;;;;;13.60;81.06;94866.66;5031068;28;20955;-76
2023/11/13 11:12:59;;;;;;;24.27;14.83;;;;;;;13.45;78.71;94869.94;5031104;28;20517;-76